Time;durP1;ratioP1;P1;durP2;ratioP2;P2;SDS_P1;SDS_P2;PMS_P1;PMS_P2;Temp;Humidity;BMP_temperature;BMP_pressure;BME280_temperature;BME280_humidity;BME280_pressure;Samples;Min_cycle;Max_cycle;Signal;HPM_P1;HPM_P2
2023/01/30 00:00:33;;;;;;;41.57;26.23;;;2.80;99.90;;;;;;4998529;28;20226;-82
2023/01/30 00:03:00;;;;;;;39.23;25.97;;;2.80;99.90;;;;;;4997104;28;20243;-81
2023/01/30 00:05:26;;;;;;;40.83;26.20;;;2.80;99.90;;;;;;4991608;28;20929;-81
2023/01/30 00:07:53;;;;;;;42.00;26.13;;;2.90;99.90;;;;;;4999576;28;20279;-81
2023/01/30 00:10:20;;;;;;;42.43;26.13;;;2.90;99.90;;;;;;4995590;28;20393;-82
2023/01/30 00:12:46;;;;;;;39.47;25.80;;;2.90;99.90;;;;;;4999962;28;20233;-81
2023/01/30 00:15:15;;;;;;;44.53;27.67;;;2.90;99.90;;;;;;5008180;28;20213;-81
2023/01/30 00:17:41;;;;;;;44.20;28.07;;;2.90;99.90;;;;;;5009813;28;20230;-81
2023/01/30 00:20:10;;;;;;;44.43;27.17;;;2.90;99.90;;;;;;5001298;28;20980;-80
2023/01/30 00:22:38;;;;;;;46.67;28.70;;;2.90;99.90;;;;;;4995797;28;20653;-81
2023/01/30 00:25:05;;;;;;;47.40;28.47;;;2.90;99.90;;;;;;4995852;28;20235;-80
2023/01/30 00:27:32;;;;;;;46.10;28.87;;;3.00;99.90;;;;;;4997285;28;21006;-81
2023/01/30 00:29:59;;;;;;;40.60;26.97;;;3.00;99.90;;;;;;4997175;28;20280;-81
2023/01/30 00:32:27;;;;;;;46.73;27.13;;;3.00;99.90;;;;;;4993064;28;20221;-80
2023/01/30 00:34:59;;;;;;;48.37;27.93;;;3.00;99.90;;;;;;4996025;28;20233;-82
2023/01/30 00:37:28;;;;;;;45.10;27.73;;;3.10;99.90;;;;;;4997878;28;20228;-81
2023/01/30 00:39:57;;;;;;;46.73;29.60;;;3.10;99.90;;;;;;4988570;28;20651;-81
2023/01/30 00:47:59;;;;;;;46.23;28.47;;;3.10;99.90;;;;;;4998763;28;20223;-82
2023/01/30 00:50:41;;;;;;;45.23;27.03;;;3.10;99.90;;;;;;4997170;28;20238;-82
2023/01/30 00:53:08;;;;;;;42.87;27.43;;;3.20;99.90;;;;;;5008631;28;20258;-82
2023/01/30 00:55:35;;;;;;;42.17;26.37;;;3.20;99.90;;;;;;4992383;28;20233;-82
2023/01/30 00:58:01;;;;;;;49.50;27.43;;;3.20;99.90;;;;;;4989462;28;20295;-81
2023/01/30 01:00:28;;;;;;;43.20;25.80;;;3.20;99.90;;;;;;4994800;28;20232;-82
2023/01/30 01:02:55;;;;;;;43.03;27.57;;;3.20;99.90;;;;;;4988480;28;20245;-81
2023/01/30 01:05:23;;;;;;;42.07;27.60;;;3.30;99.90;;;;;;4994923;28;20930;-81
2023/01/30 01:07:50;;;;;;;45.20;26.30;;;3.30;99.90;;;;;;4999756;28;20226;-80
2023/01/30 01:10:17;;;;;;;35.30;24.47;;;3.30;99.90;;;;;;4997140;28;20215;-81
2023/01/30 01:12:45;;;;;;;42.27;25.87;;;3.40;99.90;;;;;;4999256;28;20305;-81
2023/01/30 01:15:12;;;;;;;38.93;25.40;;;3.40;99.90;;;;;;4995282;28;20222;-81
2023/01/30 01:17:40;;;;;;;44.33;26.13;;;3.40;99.90;;;;;;4998289;28;21249;-80
2023/01/30 01:20:08;;;;;;;41.67;26.27;;;3.50;99.90;;;;;;4993607;28;20297;-79
2023/01/30 01:22:37;;;;;;;41.17;26.73;;;3.50;99.90;;;;;;4994677;28;20236;-80
2023/01/30 01:25:04;;;;;;;37.60;25.27;;;3.50;99.90;;;;;;4995158;28;20224;-81
2023/01/30 01:27:32;;;;;;;42.30;25.87;;;3.50;99.90;;;;;;4991885;28;20234;-81
2023/01/30 01:29:59;;;;;;;41.77;25.47;;;3.50;99.90;;;;;;5010894;28;20227;-82
2023/01/30 01:32:26;;;;;;;36.80;24.53;;;3.50;99.90;;;;;;4970448;28;20234;-81
2023/01/30 01:34:53;;;;;;;40.83;25.10;;;3.60;99.90;;;;;;4986304;28;20773;-81
2023/01/30 01:37:20;;;;;;;41.57;26.00;;;3.60;99.90;;;;;;4992905;28;20965;-82
2023/01/30 01:42:44;;;;;;;41.53;25.23;;;3.60;99.90;;;;;;4919134;29;20969;-81
2023/01/30 01:45:18;;;;;;;41.20;25.20;;;3.60;99.90;;;;;;4969284;28;20341;-81
2023/01/30 01:47:51;;;;;;;40.43;25.37;;;3.60;99.90;;;;;;4997404;28;20225;-81
2023/01/30 01:50:22;;;;;;;40.40;24.27;;;3.70;99.90;;;;;;4992013;28;20221;-80
2023/01/30 01:52:53;;;;;;;39.77;24.67;;;3.70;99.90;;;;;;4995632;28;20234;-80
2023/01/30 01:55:24;;;;;;;38.07;25.43;;;3.70;99.90;;;;;;5009241;28;20839;-81
2023/01/30 01:57:55;;;;;;;41.63;24.67;;;3.70;99.90;;;;;;4997928;28;20950;-81
2023/01/30 02:00:23;;;;;;;39.13;24.30;;;3.70;99.90;;;;;;5007221;28;20281;-81
2023/01/30 02:02:56;;;;;;;36.67;22.83;;;3.70;99.90;;;;;;4992608;28;20305;-80
2023/01/30 02:05:25;;;;;;;36.20;23.23;;;3.70;99.90;;;;;;4986352;28;20278;-82
2023/01/30 02:07:58;;;;;;;36.77;23.07;;;3.70;99.90;;;;;;4997950;28;20373;-81
2023/01/30 02:10:32;;;;;;;34.93;22.80;;;3.80;99.90;;;;;;4999278;28;20306;-81
2023/01/30 02:12:59;;;;;;;36.00;22.90;;;3.70;99.90;;;;;;4992829;28;20241;-81
2023/01/30 02:15:25;;;;;;;32.67;21.43;;;3.80;99.90;;;;;;4997702;28;20229;-81
2023/01/30 02:17:54;;;;;;;33.77;21.80;;;3.80;99.90;;;;;;5000186;28;20248;-81
2023/01/30 02:20:28;;;;;;;32.20;21.20;;;3.80;99.90;;;;;;4989434;28;21009;-79
2023/01/30 02:23:26;;;;;;;33.10;21.57;;;3.80;99.90;;;;;;4998309;28;20217;-81
2023/01/30 02:26:31;;;;;;;33.40;20.60;;;3.80;99.90;;;;;;4952540;28;20265;-80
2023/01/30 02:29:31;;;;;;;31.10;21.40;;;3.80;99.90;;;;;;4986657;28;20745;-81
2023/01/30 02:32:06;;;;;;;28.17;20.17;;;3.90;99.90;;;;;;5011507;28;20769;-81
2023/01/30 02:34:42;;;;;;;31.10;20.83;;;4.00;99.90;;;;;;5003115;28;20226;-81
2023/01/30 02:37:20;;;;;;;29.73;19.87;;;3.90;99.90;;;;;;5016311;28;20234;-81
2023/01/30 02:39:57;;;;;;;31.57;19.90;;;3.90;99.90;;;;;;5000728;28;20403;-81
2023/01/30 02:42:32;;;;;;;30.70;19.80;;;3.90;99.90;;;;;;4998889;28;20233;-80
2023/01/30 02:45:03;;;;;;;29.93;19.97;;;3.90;99.90;;;;;;4998562;28;20284;-80
2023/01/30 02:47:38;;;;;;;30.23;19.27;;;4.00;99.90;;;;;;5001875;28;20302;-80
2023/01/30 02:50:12;;;;;;;29.50;19.70;;;4.00;99.90;;;;;;4999557;28;20222;-79
2023/01/30 02:52:40;;;;;;;32.03;20.83;;;4.00;99.90;;;;;;5001805;28;20787;-80
2023/01/30 02:55:09;;;;;;;29.13;19.10;;;4.00;99.90;;;;;;4991402;28;20230;-80
2023/01/30 02:57:37;;;;;;;28.23;18.63;;;4.00;99.90;;;;;;4998130;28;20334;-80
2023/01/30 03:00:06;;;;;;;26.47;17.80;;;4.10;99.90;;;;;;5001893;28;20648;-80
2023/01/30 03:02:50;;;;;;;27.97;17.53;;;4.00;99.90;;;;;;4996275;28;20247;-80
2023/01/30 03:05:35;;;;;;;24.63;16.67;;;4.10;99.90;;;;;;4988908;28;20228;-80
2023/01/30 03:08:14;;;;;;;22.67;17.23;;;4.10;99.90;;;;;;4998551;28;20227;-80
2023/01/30 03:10:49;;;;;;;26.20;16.33;;;4.10;99.90;;;;;;4998643;28;20232;-80
2023/01/30 03:13:28;;;;;;;24.17;15.80;;;4.20;99.90;;;;;;4996948;28;20243;-80
2023/01/30 03:15:59;;;;;;;22.43;16.30;;;4.20;99.90;;;;;;4995098;28;20564;-78
2023/01/30 03:18:28;;;;;;;22.47;16.53;;;4.20;99.90;;;;;;4992376;28;20240;-80
2023/01/30 03:20:55;;;;;;;21.90;15.43;;;4.20;99.90;;;;;;4994794;28;20869;-80
2023/01/30 03:23:22;;;;;;;24.83;15.87;;;4.20;99.90;;;;;;5013978;28;20229;-80
2023/01/30 03:25:49;;;;;;;21.03;15.10;;;4.20;99.90;;;;;;4998189;28;20239;-79
2023/01/30 03:28:22;;;;;;;20.57;13.93;;;4.30;99.90;;;;;;4993649;28;20228;-80
2023/01/30 03:30:49;;;;;;;22.53;14.03;;;4.30;99.90;;;;;;4998830;28;20220;-80
2023/01/30 03:33:16;;;;;;;19.03;13.07;;;4.40;99.90;;;;;;4995125;28;20219;-80
2023/01/30 03:35:49;;;;;;;20.93;13.63;;;4.40;99.90;;;;;;4996348;28;20290;-80
2023/01/30 03:38:15;;;;;;;18.53;12.53;;;4.40;99.90;;;;;;4995141;28;20717;-80
2023/01/30 03:40:43;;;;;;;17.13;12.87;;;4.40;99.90;;;;;;4996307;28;20233;-80
2023/01/30 03:43:09;;;;;;;18.90;12.37;;;4.50;99.90;;;;;;4999692;28;20227;-79
2023/01/30 03:45:37;;;;;;;16.23;11.60;;;4.50;99.90;;;;;;4998878;28;20219;-79
2023/01/30 03:48:04;;;;;;;17.63;12.23;;;4.50;99.90;;;;;;4995110;28;20227;-81
2023/01/30 03:50:32;;;;;;;20.27;12.67;;;4.50;99.90;;;;;;4996489;28;20244;-80
2023/01/30 03:53:02;;;;;;;17.13;12.17;;;4.50;99.90;;;;;;4996324;28;20227;-80
2023/01/30 03:55:29;;;;;;;19.57;11.43;;;4.60;99.90;;;;;;4996643;28;20587;-80
2023/01/30 03:57:59;;;;;;;16.47;11.53;;;4.60;99.90;;;;;;4996885;28;20306;-80
2023/01/30 04:00:29;;;;;;;16.43;11.00;;;4.60;99.90;;;;;;5010870;28;20762;-81
2023/01/30 04:02:58;;;;;;;13.93;10.60;;;4.60;99.90;;;;;;5000472;28;20227;-80
2023/01/30 04:05:25;;;;;;;14.37;10.33;;;4.60;99.90;;;;;;4990232;28;20223;-80
2023/01/30 04:07:57;;;;;;;16.20;9.93;;;4.70;99.90;;;;;;4994507;28;20314;-80
2023/01/30 04:10:26;;;;;;;13.17;9.97;;;4.70;99.90;;;;;;4993944;28;20311;-81
2023/01/30 04:12:53;;;;;;;14.30;10.03;;;4.70;99.90;;;;;;5000377;28;20219;-81
2023/01/30 04:15:21;;;;;;;16.70;10.10;;;4.70;99.90;;;;;;4995648;28;20250;-81
2023/01/30 04:17:54;;;;;;;13.73;9.77;;;4.70;99.90;;;;;;4995789;28;20792;-81
2023/01/30 04:20:36;;;;;;;14.57;9.70;;;4.70;99.90;;;;;;5001701;28;20231;-81
2023/01/30 04:23:03;;;;;;;15.07;9.07;;;4.80;99.90;;;;;;4990027;28;20244;-81
2023/01/30 04:25:31;;;;;;;10.60;5.77;;;4.80;99.90;;;;;;4986893;28;20231;-82
2023/01/30 04:28:01;;;;;;;5.37;3.80;;;4.80;99.90;;;;;;4996523;28;20315;-81
2023/01/30 04:30:32;;;;;;;3.30;1.93;;;4.70;99.90;;;;;;4996791;28;20230;-81
2023/01/30 04:33:22;;;;;;;3.33;1.40;;;4.70;99.90;;;;;;4995587;28;20235;-82
2023/01/30 04:35:53;;;;;;;4.50;1.70;;;4.70;99.90;;;;;;5000920;28;20224;-80
2023/01/30 04:38:20;;;;;;;3.77;1.07;;;4.60;99.90;;;;;;4981705;28;20972;-80
2023/01/30 04:40:54;;;;;;;2.90;1.50;;;4.60;99.90;;;;;;4992893;28;20633;-80
2023/01/30 04:43:24;;;;;;;4.10;1.20;;;4.60;99.90;;;;;;4994606;28;20242;-79
2023/01/30 04:46:10;;;;;;;4.53;1.60;;;4.50;99.90;;;;;;5002893;28;20230;-79
2023/01/30 04:48:38;;;;;;;3.73;1.90;;;4.50;99.90;;;;;;4993314;28;20747;-79
2023/01/30 04:51:05;;;;;;;4.37;1.73;;;4.50;99.90;;;;;;5009103;28;20886;-79
2023/01/30 04:53:32;;;;;;;2.97;1.70;;;4.40;99.90;;;;;;4996867;28;20223;-79
2023/01/30 04:56:01;;;;;;;2.83;1.70;;;4.40;99.90;;;;;;4996618;28;20254;-79
2023/01/30 04:58:27;;;;;;;4.40;1.63;;;4.40;99.90;;;;;;4989151;28;20319;-79
2023/01/30 05:00:54;;;;;;;3.93;1.90;;;4.40;99.90;;;;;;4994940;28;20307;-80
2023/01/30 05:03:21;;;;;;;3.87;1.93;;;4.40;99.90;;;;;;4993448;28;20216;-79
2023/01/30 05:05:48;;;;;;;4.50;2.20;;;4.40;99.90;;;;;;4999077;28;20215;-80
2023/01/30 05:08:15;;;;;;;4.53;1.93;;;4.50;99.90;;;;;;4997541;28;20320;-79
2023/01/30 05:10:42;;;;;;;4.87;2.37;;;4.50;99.90;;;;;;4997912;28;20228;-80
2023/01/30 05:13:10;;;;;;;6.20;2.00;;;4.50;99.90;;;;;;4996816;28;20221;-80
2023/01/30 05:15:41;;;;;;;6.63;3.10;;;4.50;99.90;;;;;;4990914;28;20246;-81
2023/01/30 05:18:07;;;;;;;7.33;2.93;;;4.50;99.90;;;;;;4994595;28;20215;-81
2023/01/30 05:20:34;;;;;;;10.53;2.90;;;4.50;99.90;;;;;;4999157;28;20972;-81
2023/01/30 05:23:01;;;;;;;7.97;3.53;;;4.50;99.90;;;;;;4995829;28;20414;-82
2023/01/30 05:25:27;;;;;;;9.33;3.73;;;4.60;99.90;;;;;;4996771;28;20800;-81
2023/01/30 05:27:55;;;;;;;7.83;3.23;;;4.60;99.90;;;;;;4995570;28;20228;-80
2023/01/30 05:30:24;;;;;;;8.03;3.77;;;4.60;99.90;;;;;;4994873;28;20231;-81
2023/01/30 05:32:54;;;;;;;6.90;3.20;;;4.70;99.90;;;;;;4998627;28;20310;-81
2023/01/30 05:35:21;;;;;;;11.17;3.40;;;4.70;99.90;;;;;;4996610;28;20267;-80
2023/01/30 05:37:50;;;;;;;6.57;2.67;;;4.70;99.90;;;;;;5000875;28;20648;-80
2023/01/30 05:40:17;;;;;;;7.37;3.10;;;4.70;99.90;;;;;;4995814;28;20224;-80
2023/01/30 05:42:44;;;;;;;7.83;2.30;;;4.70;99.90;;;;;;5002466;28;20245;-80
2023/01/30 05:45:11;;;;;;;5.70;2.33;;;4.80;99.90;;;;;;4998803;28;20252;-80
2023/01/30 05:47:39;;;;;;;8.40;2.30;;;4.80;99.90;;;;;;4993810;28;20231;-80
2023/01/30 05:50:07;;;;;;;9.40;2.03;;;4.80;99.90;;;;;;5001089;28;20269;-80
2023/01/30 05:52:33;;;;;;;10.83;2.33;;;4.80;99.90;;;;;;4997053;28;20602;-80
2023/01/30 05:55:00;;;;;;;11.13;2.73;;;4.80;99.90;;;;;;5001868;28;20768;-81
2023/01/30 05:57:27;;;;;;;10.60;2.17;;;4.80;99.90;;;;;;4999545;28;20265;-81
2023/01/30 05:59:53;;;;;;;11.87;2.53;;;4.80;99.90;;;;;;5000431;28;20264;-78
2023/01/30 06:02:20;;;;;;;9.03;2.53;;;4.80;99.90;;;;;;4991970;28;20320;-79
2023/01/30 06:04:48;;;;;;;7.80;2.30;;;4.80;99.90;;;;;;5003461;28;20227;-80
2023/01/30 06:07:15;;;;;;;10.53;2.63;;;4.80;99.90;;;;;;5002365;28;20228;-80
2023/01/30 06:09:41;;;;;;;15.23;2.93;;;4.70;99.90;;;;;;5000038;28;20832;-80
2023/01/30 06:12:09;;;;;;;12.27;2.60;;;4.80;99.90;;;;;;5000954;28;20224;-81
2023/01/30 06:14:36;;;;;;;9.23;2.27;;;4.70;99.90;;;;;;5010196;28;20302;-80
2023/01/30 06:17:03;;;;;;;7.93;1.90;;;4.70;99.90;;;;;;5001903;28;20240;-80
2023/01/30 06:19:30;;;;;;;10.37;2.73;;;4.60;99.90;;;;;;4999478;28;20302;-83
2023/01/30 06:21:58;;;;;;;11.63;2.40;;;4.60;99.90;;;;;;4992492;28;20311;-79
2023/01/30 06:24:25;;;;;;;9.07;2.43;;;4.60;99.90;;;;;;4992955;28;20804;-81
2023/01/30 06:26:52;;;;;;;12.30;2.53;;;4.60;99.90;;;;;;4998270;28;20687;-82
2023/01/30 06:29:18;;;;;;;8.37;2.10;;;4.60;99.90;;;;;;5000189;28;20257;-81
2023/01/30 06:31:45;;;;;;;9.03;2.47;;;4.60;99.90;;;;;;5001024;28;20280;-81
2023/01/30 06:34:12;;;;;;;13.33;2.80;;;4.60;99.90;;;;;;5005867;28;20295;-82
2023/01/30 06:36:39;;;;;;;14.17;3.37;;;4.60;99.90;;;;;;5003533;28;20236;-81
2023/01/30 06:39:07;;;;;;;14.50;2.80;;;4.50;99.90;;;;;;5001302;28;20262;-81
2023/01/30 06:41:34;;;;;;;16.17;2.53;;;4.40;99.90;;;;;;4999334;28;20301;-81
2023/01/30 06:44:03;;;;;;;12.80;2.47;;;4.40;99.90;;;;;;5000398;28;20301;-81
2023/01/30 06:46:30;;;;;;;7.60;2.20;;;4.40;99.90;;;;;;5001323;28;20742;-81
2023/01/30 06:48:57;;;;;;;14.90;2.50;;;4.30;99.90;;;;;;5000179;28;20234;-81
2023/01/30 06:51:26;;;;;;;12.70;2.40;;;4.30;99.90;;;;;;4991897;28;20264;-81
2023/01/30 06:53:53;;;;;;;12.50;2.17;;;4.20;99.90;;;;;;5002424;28;20768;-81
2023/01/30 06:56:21;;;;;;;12.83;2.83;;;4.20;99.90;;;;;;5001216;28;20286;-83
2023/01/30 06:58:48;;;;;;;12.93;2.60;;;4.10;99.90;;;;;;4998536;28;20235;-82
2023/01/30 07:01:14;;;;;;;16.07;2.53;;;4.10;99.90;;;;;;4980208;28;20315;-82
2023/01/30 07:03:41;;;;;;;12.57;2.23;;;4.10;99.90;;;;;;4995570;28;20226;-83
2023/01/30 07:06:08;;;;;;;11.23;2.53;;;4.10;99.90;;;;;;5000673;28;20222;-82
2023/01/30 07:08:34;;;;;;;18.10;2.80;;;4.00;99.90;;;;;;5002571;28;20239;-82
2023/01/30 07:11:05;;;;;;;9.73;2.67;;;4.10;99.90;;;;;;5003885;28;20227;-83
2023/01/30 07:13:33;;;;;;;10.87;3.07;;;4.00;99.90;;;;;;5001177;28;20226;-82
2023/01/30 07:16:02;;;;;;;13.33;2.57;;;4.00;99.90;;;;;;5005210;28;20243;-82
2023/01/30 07:18:35;;;;;;;10.07;2.47;;;4.00;99.90;;;;;;4985303;28;20259;-81
2023/01/30 07:21:01;;;;;;;16.93;3.60;;;3.90;99.90;;;;;;5002950;28;21191;-82
2023/01/30 07:23:30;;;;;;;11.03;2.57;;;3.90;99.90;;;;;;4994078;28;20242;-81
2023/01/30 07:25:57;;;;;;;12.00;2.00;;;3.90;99.90;;;;;;5001172;28;20218;-82
2023/01/30 07:28:26;;;;;;;13.53;2.87;;;3.80;99.90;;;;;;4994900;28;20241;-81
2023/01/30 07:30:54;;;;;;;15.10;3.07;;;3.80;99.90;;;;;;5000251;28;20227;-82
2023/01/30 07:33:21;;;;;;;18.47;3.13;;;3.80;99.90;;;;;;4997579;28;21537;-82
2023/01/30 07:35:48;;;;;;;15.93;2.47;;;3.80;99.90;;;;;;5014899;28;20733;-82
2023/01/30 07:38:14;;;;;;;33.00;3.73;;;3.80;99.90;;;;;;4995604;28;20485;-82
2023/01/30 07:40:41;;;;;;;39.27;4.03;;;3.80;99.90;;;;;;5001220;28;20256;-80
2023/01/30 07:43:11;;;;;;;23.77;3.77;;;3.90;99.90;;;;;;5003046;28;20939;-81
2023/01/30 07:45:41;;;;;;;23.30;3.63;;;3.90;99.90;;;;;;5017592;28;20223;-80
2023/01/30 07:48:10;;;;;;;15.73;3.17;;;3.90;99.90;;;;;;5001077;28;20258;-80
2023/01/30 07:50:37;;;;;;;17.50;3.77;;;4.00;99.90;;;;;;4998872;28;20236;-80
2023/01/30 07:53:04;;;;;;;20.30;3.70;;;4.10;99.90;;;;;;5000280;28;20225;-80
2023/01/30 07:55:31;;;;;;;15.00;3.23;;;4.10;99.90;;;;;;5011032;28;20242;-80
2023/01/30 07:58:03;;;;;;;17.67;3.57;;;4.30;99.90;;;;;;5001700;28;20222;-80
2023/01/30 08:00:29;;;;;;;19.60;4.07;;;4.30;99.90;;;;;;5000721;28;20238;-80
2023/01/30 08:02:57;;;;;;;24.17;4.63;;;4.30;99.90;;;;;;4997536;28;21690;-80
2023/01/30 08:05:27;;;;;;;20.80;3.53;;;4.40;99.90;;;;;;4997667;28;20258;-80
2023/01/30 08:08:00;;;;;;;14.63;3.83;;;4.50;99.90;;;;;;5016996;28;20231;-80
2023/01/30 08:10:27;;;;;;;23.27;4.50;;;4.50;99.90;;;;;;5000358;28;20230;-79
2023/01/30 08:12:53;;;;;;;19.80;4.70;;;4.50;99.90;;;;;;4994915;28;20248;-79
2023/01/30 08:15:20;;;;;;;29.23;5.77;;;4.50;99.90;;;;;;4993150;28;20220;-79
2023/01/30 08:17:54;;;;;;;26.30;4.97;;;4.60;99.90;;;;;;4994718;28;20311;-79
2023/01/30 08:20:21;;;;;;;27.20;5.77;;;4.60;99.90;;;;;;4998271;28;20239;-79
2023/01/30 08:22:49;;;;;;;24.23;5.03;;;4.60;99.90;;;;;;4998914;28;20228;-79
2023/01/30 08:25:16;;;;;;;22.77;4.80;;;4.70;99.90;;;;;;5014645;28;20254;-78
2023/01/30 08:27:43;;;;;;;29.33;5.90;;;4.60;99.90;;;;;;4999032;28;20235;-79
2023/01/30 08:30:11;;;;;;;29.10;5.90;;;4.60;99.90;;;;;;4994653;28;20223;-79
2023/01/30 08:32:38;;;;;;;24.60;4.83;;;4.60;99.90;;;;;;5000304;28;20223;-79
2023/01/30 08:35:05;;;;;;;26.43;5.13;;;4.60;99.90;;;;;;4999342;28;20230;-79
2023/01/30 08:37:32;;;;;;;26.87;5.30;;;4.50;99.90;;;;;;5000405;28;20220;-79
2023/01/30 08:40:00;;;;;;;29.40;5.60;;;4.50;99.90;;;;;;5005350;28;20873;-79
2023/01/30 08:42:27;;;;;;;22.57;4.67;;;4.50;99.90;;;;;;5001284;28;20230;-80
2023/01/30 08:44:53;;;;;;;27.23;5.53;;;4.50;99.90;;;;;;5003645;28;20227;-79
2023/01/30 08:47:20;;;;;;;22.30;5.07;;;4.50;99.90;;;;;;5001409;28;20223;-80
2023/01/30 08:49:47;;;;;;;22.43;4.87;;;4.60;99.90;;;;;;5002091;28;20238;-82
2023/01/30 08:52:14;;;;;;;26.97;5.20;;;4.70;99.90;;;;;;5000517;28;20575;-82
2023/01/30 08:54:40;;;;;;;35.57;6.80;;;4.70;99.90;;;;;;4995881;28;20735;-82
2023/01/30 08:57:08;;;;;;;23.97;5.53;;;4.70;99.90;;;;;;5000564;28;20295;-82
2023/01/30 08:59:37;;;;;;;27.90;6.10;;;4.80;99.90;;;;;;5003385;28;20363;-82
2023/01/30 09:02:03;;;;;;;26.93;5.13;;;4.80;99.90;;;;;;4998687;28;20319;-82
2023/01/30 09:04:30;;;;;;;26.63;5.80;;;4.80;99.90;;;;;;4996173;28;20249;-82
2023/01/30 09:06:59;;;;;;;29.23;5.40;;;4.90;99.90;;;;;;5004474;28;20306;-82
2023/01/30 09:09:26;;;;;;;23.43;5.30;;;5.00;99.90;;;;;;4998454;28;20229;-79
2023/01/30 09:11:52;;;;;;;21.57;4.87;;;5.20;99.90;;;;;;5002618;28;20229;-79
2023/01/30 09:14:21;;;;;;;28.87;5.27;;;5.50;99.90;;;;;;4999707;28;20214;-79
2023/01/30 09:16:54;;;;;;;24.37;5.10;;;5.70;99.90;;;;;;5007277;28;20312;-79
2023/01/30 09:19:23;;;;;;;25.27;5.27;;;5.90;99.90;;;;;;4996301;28;20261;-79
2023/01/30 09:21:49;;;;;;;33.47;6.07;;;6.00;99.90;;;;;;4989229;28;20223;-80
2023/01/30 09:24:16;;;;;;;26.17;5.87;;;6.10;99.90;;;;;;5001868;28;20300;-79
2023/01/30 09:26:44;;;;;;;21.17;5.03;;;6.10;99.90;;;;;;5008646;28;20597;-79
2023/01/30 09:29:10;;;;;;;24.53;5.50;;;6.10;99.90;;;;;;4993101;28;20231;-79
2023/01/30 09:31:38;;;;;;;16.17;5.20;;;6.10;99.90;;;;;;5008630;28;20270;-79
2023/01/30 09:34:08;;;;;;;23.30;5.00;;;6.10;99.90;;;;;;5000951;28;20309;-79
2023/01/30 09:36:38;;;;;;;24.93;4.93;;;6.10;99.90;;;;;;5000548;28;20215;-79
2023/01/30 09:39:05;;;;;;;21.03;4.63;;;6.10;99.90;;;;;;5000928;28;20779;-79
2023/01/30 09:41:54;;;;;;;21.30;4.53;;;6.20;99.90;;;;;;5002575;28;20227;-79
2023/01/30 09:44:43;;;;;;;19.93;4.67;;;6.30;99.90;;;;;;4998563;28;20597;-79
2023/01/30 09:47:17;;;;;;;18.70;4.93;;;6.50;99.90;;;;;;4991372;28;20279;-79
2023/01/30 09:49:55;;;;;;;22.13;4.70;;;6.70;99.90;;;;;;5001008;28;20278;-79
2023/01/30 09:52:30;;;;;;;25.13;5.40;;;6.80;99.90;;;;;;4998787;28;20221;-80
2023/01/30 09:55:15;;;;;;;21.00;4.87;;;7.00;99.90;;;;;;5004997;28;20214;-79
2023/01/30 09:57:42;;;;;;;19.97;5.03;;;7.00;99.90;;;;;;5003565;28;20218;-79
2023/01/30 10:00:15;;;;;;;21.97;4.50;;;7.10;99.90;;;;;;4999320;28;20989;-80
2023/01/30 10:02:51;;;;;;;25.10;5.37;;;7.10;99.90;;;;;;4998117;28;20254;-79
2023/01/30 10:05:18;;;;;;;27.13;5.00;;;7.10;99.90;;;;;;5004925;28;20321;-79
2023/01/30 10:07:57;;;;;;;27.93;5.53;;;7.00;99.90;;;;;;5004889;28;20228;-79
2023/01/30 10:10:40;;;;;;;22.43;4.57;;;7.00;99.90;;;;;;5002621;28;20281;-79
2023/01/30 10:13:25;;;;;;;16.73;3.83;;;6.80;99.90;;;;;;4995557;28;20220;-78
2023/01/30 10:15:56;;;;;;;18.67;4.37;;;6.60;99.90;;;;;;4999556;28;20229;-80
2023/01/30 10:18:43;;;;;;;19.20;3.87;;;6.40;99.90;;;;;;5015546;28;20222;-79
2023/01/30 10:21:18;;;;;;;14.20;3.17;;;6.20;99.90;;;;;;4999869;28;20228;-79
2023/01/30 10:24:03;;;;;;;15.77;3.03;;;6.00;99.90;;;;;;4995045;28;20698;-80
2023/01/30 10:26:31;;;;;;;16.23;4.00;;;5.90;99.90;;;;;;4990185;28;20938;-80
2023/01/30 10:29:01;;;;;;;12.07;3.47;;;5.70;99.90;;;;;;5007692;28;20229;-80
2023/01/30 10:31:34;;;;;;;10.50;3.03;;;5.60;99.90;;;;;;4999915;28;20236;-80
2023/01/30 10:34:05;;;;;;;8.10;2.50;;;5.40;99.90;;;;;;5000766;28;20316;-80
2023/01/30 10:36:39;;;;;;;10.77;2.70;;;5.30;99.90;;;;;;5005988;28;20225;-79
2023/01/30 10:39:18;;;;;;;10.33;2.30;;;5.20;99.90;;;;;;5005449;28;20235;-80
2023/01/30 10:41:51;;;;;;;10.07;1.87;;;5.10;99.90;;;;;;5003853;28;20224;-79
2023/01/30 10:44:22;;;;;;;9.37;2.50;;;5.00;99.90;;;;;;5002817;28;20238;-80
2023/01/30 10:47:15;;;;;;;4.83;1.60;;;5.00;99.90;;;;;;4997742;28;20654;-80
2023/01/30 10:49:51;;;;;;;9.80;1.80;;;5.00;99.90;;;;;;5012488;28;20226;-79
2023/01/30 10:52:30;;;;;;;7.87;2.00;;;5.10;99.90;;;;;;5000831;28;20237;-79
2023/01/30 10:55:06;;;;;;;8.43;2.10;;;5.20;99.90;;;;;;4998998;28;20228;-79
2023/01/30 10:57:44;;;;;;;9.27;2.50;;;5.30;99.90;;;;;;5001132;28;21006;-80
2023/01/30 11:00:23;;;;;;;14.50;3.03;;;5.40;99.90;;;;;;4996071;28;20808;-80
2023/01/30 11:03:03;;;;;;;13.77;3.23;;;5.50;99.90;;;;;;4997509;28;20841;-79
2023/01/30 11:05:41;;;;;;;20.60;3.03;;;5.60;99.90;;;;;;4977460;28;20229;-79
2023/01/30 11:08:18;;;;;;;13.70;3.53;;;5.60;99.90;;;;;;4998114;28;20225;-80
2023/01/30 11:10:45;;;;;;;17.60;3.60;;;5.50;99.90;;;;;;5005981;28;20227;-80
2023/01/30 11:13:17;;;;;;;14.27;3.53;;;5.30;99.90;;;;;;5020266;28;20243;-80
2023/01/30 11:15:46;;;;;;;11.40;2.13;;;5.20;99.90;;;;;;4998996;28;20221;-80
2023/01/30 11:18:14;;;;;;;8.23;2.77;;;5.00;99.90;;;;;;5001434;28;20221;-80
2023/01/30 11:20:44;;;;;;;5.57;1.07;;;4.80;99.90;;;;;;5000479;28;20343;-79
2023/01/30 11:23:24;;;;;;;7.17;1.07;;;4.70;99.90;;;;;;5012046;28;20222;-80
2023/01/30 11:25:54;;;;;;;4.07;1.10;;;4.50;99.90;;;;;;4998757;28;20227;-79
2023/01/30 11:28:21;;;;;;;9.20;3.60;;;4.40;99.90;;;;;;5019724;28;20236;-79
2023/01/30 11:30:56;;;;;;;3.17;0.93;;;4.30;99.90;;;;;;5003334;28;20220;-79
2023/01/30 11:33:24;;;;;;;4.90;1.10;;;4.20;99.90;;;;;;4993648;28;20218;-79
2023/01/30 11:35:59;;;;;;;3.00;0.63;;;4.10;99.90;;;;;;5002169;28;20852;-79
2023/01/30 11:38:31;;;;;;;9.73;3.47;;;4.00;99.90;;;;;;4987707;28;23038;-81
2023/01/30 11:41:13;;;;;;;5.50;1.33;;;4.00;99.90;;;;;;4997199;28;20252;-81
2023/01/30 11:43:40;;;;;;;6.83;2.67;;;3.90;99.90;;;;;;4971891;28;20743;-81
2023/01/30 11:46:09;;;;;;;6.30;1.67;;;3.80;99.90;;;;;;5000395;28;20226;-81
2023/01/30 11:48:48;;;;;;;5.03;1.53;;;3.80;99.90;;;;;;5003101;28;20844;-81
2023/01/30 11:51:17;;;;;;;7.47;1.27;;;3.80;99.90;;;;;;4993790;28;20231;-82
2023/01/30 11:53:46;;;;;;;8.03;1.93;;;3.80;99.90;;;;;;4995986;28;20282;-82
2023/01/30 11:56:17;;;;;;;10.57;1.83;;;3.80;99.90;;;;;;4999585;28;20231;-81
2023/01/30 11:58:48;;;;;;;10.67;2.17;;;3.80;99.90;;;;;;5014578;28;20253;-81
2023/01/30 12:01:16;;;;;;;9.53;1.70;;;3.90;99.90;;;;;;4997669;28;20222;-81
2023/01/30 12:03:50;;;;;;;11.70;2.00;;;4.10;99.90;;;;;;5000760;28;20219;-81
2023/01/30 12:06:33;;;;;;;13.80;2.57;;;4.10;99.90;;;;;;4996737;28;20256;-81
2023/01/30 12:09:00;;;;;;;6.93;1.60;;;4.20;99.90;;;;;;4996324;28;20230;-81
2023/01/30 12:11:30;;;;;;;9.50;3.70;;;4.30;99.90;;;;;;5000264;28;20237;-81
2023/01/30 12:14:12;;;;;;;17.10;2.50;;;4.40;99.90;;;;;;4997442;28;20232;-79
2023/01/30 12:16:50;;;;;;;14.67;2.50;;;4.50;99.90;;;;;;5015011;28;20224;-79
2023/01/30 12:19:32;;;;;;;16.70;2.63;;;4.60;99.90;;;;;;4991222;28;20245;-78
2023/01/30 12:22:08;;;;;;;8.37;1.87;;;4.90;99.90;;;;;;5004977;28;20682;-79
2023/01/30 12:24:40;;;;;;;9.10;2.30;;;5.00;99.90;;;;;;5016248;28;20255;-79
2023/01/30 12:27:16;;;;;;;12.47;3.27;;;5.10;99.90;;;;;;4998514;28;20260;-79
2023/01/30 12:29:53;;;;;;;13.87;2.87;;;5.20;99.90;;;;;;5000139;28;20231;-79
2023/01/30 12:32:25;;;;;;;13.87;2.60;;;5.30;99.90;;;;;;4983009;28;20227;-79
2023/01/30 12:34:52;;;;;;;16.23;2.97;;;5.30;99.90;;;;;;4992522;28;20228;-80
2023/01/30 12:37:33;;;;;;;9.80;2.10;;;5.20;99.90;;;;;;4991871;28;20226;-80
2023/01/30 12:40:06;;;;;;;6.20;1.33;;;5.00;99.90;;;;;;5002570;28;20247;-80
2023/01/30 12:42:54;;;;;;;2.63;0.87;;;4.90;99.90;;;;;;5000068;28;20228;-80
2023/01/30 12:45:23;;;;;;;4.23;0.90;;;4.70;99.90;;;;;;4995096;28;20714;-79
2023/01/30 12:48:07;;;;;;;5.20;1.40;;;4.50;99.90;;;;;;4999775;28;20231;-79
2023/01/30 12:50:48;;;;;;;6.70;1.30;;;4.30;99.90;;;;;;4996753;28;20785;-79
2023/01/30 12:53:29;;;;;;;6.80;1.60;;;4.20;99.90;;;;;;5012617;28;20844;-79
2023/01/30 12:56:16;;;;;;;6.10;1.70;;;4.00;99.90;;;;;;4999370;28;20222;-79
2023/01/30 12:58:48;;;;;;;12.90;1.90;;;3.90;99.90;;;;;;4999127;28;20240;-78
2023/01/30 13:01:26;;;;;;;9.70;1.83;;;3.80;99.90;;;;;;4997582;28;20226;-78
2023/01/30 13:04:00;;;;;;;11.00;2.40;;;3.80;99.90;;;;;;5002365;28;20249;-79
2023/01/30 13:06:45;;;;;;;15.87;2.60;;;3.80;99.90;;;;;;4998775;28;20218;-78
2023/01/30 13:09:31;;;;;;;18.20;2.80;;;3.80;99.90;;;;;;5000471;28;20227;-79
2023/01/30 13:12:06;;;;;;;14.93;3.30;;;3.90;99.90;;;;;;4998727;28;20251;-79